createdAt,value
2023-08-26T00:00:32.966Z,39.78
2023-08-26T00:03:06.435Z,37.58
2023-08-26T00:05:38.704Z,38.10
2023-08-26T00:08:11.070Z,37.85
2023-08-26T00:10:43.264Z,37.30
2023-08-26T00:13:15.509Z,38.50
2023-08-26T00:15:47.667Z,40.97
2023-08-26T00:18:19.755Z,39.92
2023-08-26T00:20:53.384Z,38.38
2023-08-26T00:23:25.499Z,39.83
2023-08-26T00:25:57.657Z,39.25
2023-08-26T00:28:29.938Z,38.55
2023-08-26T00:31:02.150Z,40.03
2023-08-26T00:33:34.290Z,36.97
2023-08-26T00:36:06.540Z,34.97
2023-08-26T00:38:38.696Z,34.88
2023-08-26T00:41:10.857Z,33.08
2023-08-26T00:43:42.943Z,33.35
2023-08-26T00:46:15.522Z,33.42
2023-08-26T00:48:48.000Z,35.10
2023-08-26T00:51:20.818Z,35.33
2023-08-26T00:53:53.064Z,52.08
2023-08-26T00:56:25.303Z,88.35
2023-08-26T00:58:57.607Z,46.78
2023-08-26T01:01:33.238Z,38.25
2023-08-26T01:04:05.916Z,38.60
2023-08-26T01:06:38.283Z,36.50
2023-08-26T01:09:10.503Z,36.97
2023-08-26T01:12:23.084Z,36.58
2023-08-26T01:15:09.598Z,32.30
2023-08-26T01:17:45.700Z,31.33
2023-08-26T01:20:18.975Z,30.50
2023-08-26T01:22:54.978Z,32.10
2023-08-26T01:25:27.530Z,29.58
2023-08-26T01:27:59.982Z,28.90
2023-08-26T01:30:33.093Z,30.00
2023-08-26T01:33:23.116Z,27.63
2023-08-26T01:36:00.921Z,28.38
2023-08-26T01:38:33.842Z,27.02
2023-08-26T01:41:08.964Z,24.35
2023-08-26T01:43:42.804Z,23.10
2023-08-26T01:46:17.093Z,24.23
2023-08-26T01:48:49.266Z,25.48
2023-08-26T01:51:24.566Z,25.25
2023-08-26T01:53:56.670Z,24.25
2023-08-26T01:56:28.786Z,22.92
2023-08-26T01:59:01.009Z,26.00
2023-08-26T02:01:34.983Z,23.33
2023-08-26T02:04:07.432Z,26.73
2023-08-26T02:06:41.557Z,24.75
2023-08-26T02:09:16.300Z,23.95
2023-08-26T02:11:48.456Z,20.85
2023-08-26T02:14:20.578Z,25.20
2023-08-26T02:16:52.758Z,25.20
2023-08-26T02:19:24.890Z,24.42
2023-08-26T02:21:57.123Z,25.15
2023-08-26T02:24:30.520Z,25.48
2023-08-26T02:27:02.617Z,28.23
2023-08-26T02:29:34.688Z,25.23
2023-08-26T02:32:08.243Z,24.75
2023-08-26T02:34:40.559Z,26.98
2023-08-26T02:37:12.683Z,25.92
2023-08-26T02:39:44.842Z,24.92
2023-08-26T02:42:17.023Z,27.63
2023-08-26T02:44:49.322Z,26.92
2023-08-26T02:47:21.392Z,28.40
2023-08-26T02:49:53.547Z,27.83
2023-08-26T02:52:25.715Z,25.80
2023-08-26T02:54:57.972Z,26.27
2023-08-26T02:57:30.088Z,24.27
2023-08-26T03:00:04.508Z,23.40
2023-08-26T03:02:37.186Z,25.08
2023-08-26T03:05:09.689Z,27.02
2023-08-26T03:07:41.814Z,27.77
2023-08-26T03:10:13.974Z,28.55
2023-08-26T03:12:46.122Z,33.10
2023-08-26T03:15:18.655Z,29.52
2023-08-26T03:17:50.822Z,35.53
2023-08-26T03:20:23.505Z,36.25
2023-08-26T03:22:55.766Z,37.53
2023-08-26T03:25:27.875Z,37.13
2023-08-26T03:27:59.986Z,38.10
2023-08-26T03:30:32.071Z,37.15
2023-08-26T03:33:05.122Z,37.20
2023-08-26T03:35:40.502Z,34.40
2023-08-26T03:38:12.613Z,34.92
2023-08-26T03:40:44.759Z,35.67
2023-08-26T03:43:17.236Z,36.10
2023-08-26T03:45:49.643Z,33.30
2023-08-26T03:48:25.047Z,30.98
2023-08-26T03:50:58.354Z,33.67
2023-08-26T03:53:30.519Z,32.88
2023-08-26T03:56:02.775Z,34.17
2023-08-26T03:58:35.138Z,31.45
2023-08-26T04:01:07.552Z,32.53
2023-08-26T04:06:12.686Z,30.15
2023-08-26T04:08:46.322Z,27.02
2023-08-26T04:11:19.021Z,25.80
2023-08-26T04:13:51.139Z,27.45
2023-08-26T04:16:23.225Z,26.33
2023-08-26T04:18:55.446Z,26.85
2023-08-26T04:21:27.623Z,25.67
2023-08-26T04:23:59.729Z,24.20
2023-08-26T04:26:31.850Z,22.75
2023-08-26T04:29:03.986Z,22.83
2023-08-26T04:31:36.134Z,21.48
2023-08-26T04:34:08.396Z,20.60
2023-08-26T04:36:40.521Z,18.73
2023-08-26T04:39:12.609Z,19.10
2023-08-26T04:41:44.871Z,19.33
2023-08-26T04:44:22.515Z,18.80
2023-08-26T04:46:54.950Z,17.67
2023-08-26T04:49:27.142Z,17.10
2023-08-26T04:52:00.080Z,16.02
2023-08-26T04:54:32.328Z,15.57
2023-08-26T04:57:04.759Z,15.75
2023-08-26T04:59:38.300Z,15.70
2023-08-26T05:02:10.485Z,15.45
2023-08-26T05:04:42.885Z,15.88
2023-08-26T05:07:15.089Z,15.32
2023-08-26T05:09:47.595Z,15.15
2023-08-26T05:12:24.099Z,16.60
2023-08-26T05:14:56.302Z,15.23
2023-08-26T05:17:28.740Z,13.45
2023-08-26T05:20:00.950Z,15.75
2023-08-26T05:22:33.248Z,14.88
2023-08-26T05:25:06.875Z,14.45
2023-08-26T05:27:39.000Z,12.82
2023-08-26T05:30:12.179Z,14.55
2023-08-26T05:32:44.418Z,15.07
2023-08-26T05:35:16.712Z,14.80
2023-08-26T05:37:49.111Z,13.75
2023-08-26T05:40:28.062Z,13.30
2023-08-26T05:43:00.794Z,13.13
2023-08-26T05:45:33.974Z,12.43
2023-08-26T05:48:06.749Z,12.40
2023-08-26T05:50:39.005Z,12.65
2023-08-26T05:53:11.455Z,13.25
2023-08-26T05:55:43.880Z,13.20
2023-08-26T05:58:16.025Z,12.45
2023-08-26T06:00:50.869Z,12.30
2023-08-26T06:03:23.157Z,12.50
2023-08-26T06:05:55.409Z,12.45
2023-08-26T06:08:27.666Z,11.68
2023-08-26T06:10:59.816Z,11.73
2023-08-26T06:13:31.934Z,12.25
2023-08-26T06:16:04.262Z,11.15
2023-08-26T06:18:36.423Z,8.80
2023-08-26T06:21:08.662Z,10.57
2023-08-26T06:23:41.269Z,9.52
2023-08-26T06:26:13.449Z,8.43
2023-08-26T06:28:45.773Z,8.05
2023-08-26T06:31:17.989Z,7.18
2023-08-26T06:33:50.893Z,8.52
2023-08-26T06:36:22.993Z,7.47
2023-08-26T06:38:55.114Z,8.65
2023-08-26T06:41:29.748Z,6.60
2023-08-26T06:44:02.982Z,5.63
2023-08-26T06:46:35.223Z,5.80
2023-08-26T06:49:08.405Z,5.63
2023-08-26T06:51:40.572Z,4.63
2023-08-26T06:54:12.697Z,5.38
2023-08-26T06:56:44.793Z,3.97
2023-08-26T06:59:17.065Z,4.88
2023-08-26T07:01:49.241Z,4.70
2023-08-26T07:04:21.706Z,4.97
2023-08-26T07:06:54.359Z,4.88
2023-08-26T07:09:26.628Z,4.68
2023-08-26T07:12:01.042Z,4.18
2023-08-26T07:14:34.773Z,3.90
2023-08-26T07:17:06.882Z,4.20
2023-08-26T07:19:38.965Z,4.32
2023-08-26T07:22:11.543Z,4.13
2023-08-26T07:24:46.680Z,3.80
2023-08-26T07:27:19.724Z,4.15
2023-08-26T07:29:51.875Z,3.90
2023-08-26T07:32:24.354Z,3.60
2023-08-26T07:34:56.476Z,4.20
2023-08-26T07:37:30.841Z,3.45
2023-08-26T07:40:07.090Z,4.28
2023-08-26T07:42:39.346Z,4.63
2023-08-26T07:45:12.616Z,4.10
2023-08-26T07:50:19.959Z,3.45
2023-08-26T07:52:54.973Z,4.35
2023-08-26T07:55:27.407Z,3.72
2023-08-26T07:57:59.722Z,3.03
2023-08-26T08:00:31.823Z,3.83
2023-08-26T08:03:04.212Z,3.00
2023-08-26T08:05:36.560Z,2.70
2023-08-26T08:08:08.648Z,2.70
2023-08-26T08:10:41.423Z,3.40
2023-08-26T08:13:15.044Z,2.88
2023-08-26T08:15:47.290Z,2.70
2023-08-26T08:18:19.418Z,2.80
2023-08-26T08:20:51.586Z,3.15
2023-08-26T08:23:23.862Z,2.90
2023-08-26T08:25:55.967Z,3.40
2023-08-26T08:28:28.067Z,3.03
2023-08-26T08:31:00.659Z,2.85
2023-08-26T08:33:34.581Z,3.15
2023-08-26T08:36:06.789Z,3.47
2023-08-26T08:38:38.905Z,3.00
2023-08-26T08:41:11.001Z,2.80
2023-08-26T08:43:46.967Z,2.83
2023-08-26T08:46:21.865Z,3.55
2023-08-26T08:48:54.027Z,9.82
2023-08-26T08:51:28.975Z,3.72
2023-08-26T08:54:05.543Z,4.35
2023-08-26T08:56:38.720Z,4.95
2023-08-26T08:59:12.954Z,5.38
2023-08-26T09:01:45.628Z,6.63
2023-08-26T09:04:17.814Z,6.63
2023-08-26T09:06:50.510Z,7.03
2023-08-26T09:09:33.796Z,6.13
2023-08-26T09:12:09.760Z,7.60
2023-08-26T09:14:41.996Z,9.68
2023-08-26T09:17:19.593Z,8.75
2023-08-26T09:19:56.928Z,9.25
2023-08-26T09:22:31.334Z,10.40
2023-08-26T09:25:06.341Z,12.27
2023-08-26T09:27:44.985Z,12.57
2023-08-26T09:30:23.296Z,15.00
2023-08-26T09:32:56.557Z,13.95
2023-08-26T09:38:03.869Z,15.88
2023-08-26T09:40:36.027Z,20.60
2023-08-26T09:43:09.402Z,23.50
2023-08-26T09:45:41.601Z,23.95
2023-08-26T09:48:25.652Z,25.40
2023-08-26T09:50:57.770Z,27.08
2023-08-26T09:53:34.874Z,26.95
2023-08-26T09:56:07.331Z,25.70
2023-08-26T09:58:39.438Z,29.08
2023-08-26T10:01:11.631Z,27.73
2023-08-26T10:03:50.914Z,28.92
2023-08-26T10:06:27.350Z,27.90
2023-08-26T10:09:18.557Z,27.13
2023-08-26T10:11:56.360Z,24.10
2023-08-26T10:14:30.783Z,22.13
2023-08-26T10:17:05.160Z,20.58
2023-08-26T10:19:37.699Z,20.80
2023-08-26T10:22:10.950Z,20.98
2023-08-26T10:24:46.188Z,19.75
2023-08-26T10:27:19.508Z,19.73
2023-08-26T10:29:51.920Z,15.38
2023-08-26T10:32:24.540Z,14.35
2023-08-26T10:35:00.468Z,15.43
2023-08-26T10:37:33.900Z,12.80
2023-08-26T10:40:10.192Z,11.65
2023-08-26T10:43:06.534Z,11.73
2023-08-26T10:45:58.896Z,9.60
2023-08-26T10:48:31.134Z,8.48
2023-08-26T10:51:03.984Z,6.90
2023-08-26T10:53:45.896Z,7.63
2023-08-26T10:56:22.775Z,7.72
2023-08-26T10:59:04.649Z,6.70
2023-08-26T11:01:38.051Z,4.70
2023-08-26T11:04:10.370Z,4.50
2023-08-26T11:06:42.994Z,4.88
2023-08-26T11:09:20.750Z,3.58
2023-08-26T11:11:53.954Z,3.47
2023-08-26T11:14:35.831Z,2.75
2023-08-26T11:17:08.550Z,2.53
2023-08-26T11:19:40.835Z,3.17
2023-08-26T11:22:12.994Z,2.95
2023-08-26T11:24:49.968Z,2.53
2023-08-26T11:27:22.079Z,2.83
2023-08-26T11:29:54.278Z,2.72
2023-08-26T11:32:32.085Z,2.70
2023-08-26T11:35:14.476Z,1.98
2023-08-26T11:37:52.198Z,2.80
2023-08-26T11:40:24.959Z,2.63
2023-08-26T11:42:57.157Z,3.47
2023-08-26T11:45:29.709Z,2.30
2023-08-26T11:48:02.051Z,2.90
2023-08-26T11:50:36.192Z,2.67
2023-08-26T11:53:08.667Z,2.63
2023-08-26T11:55:42.983Z,2.33
2023-08-26T11:58:15.134Z,2.10
2023-08-26T12:00:49.303Z,1.42
2023-08-26T12:03:21.848Z,2.63
2023-08-26T12:05:54.209Z,1.75
2023-08-26T12:08:26.377Z,1.20
2023-08-26T12:10:59.393Z,1.92
2023-08-26T12:13:39.897Z,1.50
2023-08-26T12:16:14.383Z,1.70
2023-08-26T12:18:49.525Z,1.90
2023-08-26T12:21:21.741Z,1.63
2023-08-26T12:23:53.921Z,1.20
2023-08-26T12:26:26.755Z,1.30
2023-08-26T12:29:00.065Z,0.98
2023-08-26T12:31:35.774Z,1.70
2023-08-26T12:34:08.424Z,1.63
2023-08-26T12:36:40.607Z,1.08
2023-08-26T12:39:12.936Z,1.10
2023-08-26T12:41:46.333Z,1.33
2023-08-26T12:44:19.141Z,1.80
2023-08-26T12:46:52.097Z,1.70
2023-08-26T12:49:28.072Z,1.50
2023-08-26T12:52:00.664Z,1.40
2023-08-26T12:54:32.778Z,1.10
2023-08-26T12:57:05.226Z,1.58
2023-08-26T12:59:37.481Z,1.08
2023-08-26T13:02:09.880Z,1.38
2023-08-26T13:04:43.175Z,1.20
2023-08-26T13:07:17.252Z,1.65
2023-08-26T13:09:49.743Z,1.83
2023-08-26T13:12:22.054Z,1.08
2023-08-26T13:14:54.260Z,1.27
2023-08-26T13:17:27.235Z,2.47
2023-08-26T13:20:00.294Z,2.35
2023-08-26T13:22:32.545Z,1.65
2023-08-26T13:25:05.625Z,2.53
2023-08-26T13:27:37.877Z,2.40
2023-08-26T13:30:10.187Z,4.20
2023-08-26T13:32:42.411Z,1.73
2023-08-26T13:35:16.637Z,3.13
2023-08-26T13:37:49.525Z,1.50
2023-08-26T13:40:21.781Z,1.35
2023-08-26T13:42:56.400Z,1.63
2023-08-26T13:45:28.629Z,2.03
2023-08-26T13:48:01.197Z,2.00
2023-08-26T13:50:33.509Z,1.45
2023-08-26T13:53:05.842Z,1.20
2023-08-26T13:55:38.195Z,1.33
2023-08-26T13:58:10.340Z,1.70
2023-08-26T14:00:42.483Z,1.42
2023-08-26T14:03:14.661Z,1.67
2023-08-26T14:05:47.540Z,1.50
2023-08-26T14:08:23.433Z,2.03
2023-08-26T14:10:55.623Z,1.58
2023-08-26T14:13:27.935Z,1.67
2023-08-26T14:16:00.156Z,2.08
2023-08-26T14:18:32.443Z,1.98
2023-08-26T14:21:04.746Z,2.63
2023-08-26T14:23:36.937Z,2.00
2023-08-26T14:26:09.091Z,1.92
2023-08-26T14:28:41.236Z,1.77
2023-08-26T14:31:13.516Z,2.22
2023-08-26T14:33:47.065Z,2.03
2023-08-26T14:36:19.216Z,1.60
2023-08-26T14:38:51.406Z,1.60
2023-08-26T14:41:23.471Z,1.50
2023-08-26T14:43:55.782Z,1.73
2023-08-26T14:46:28.195Z,2.00
2023-08-26T14:49:00.405Z,1.60
2023-08-26T14:51:32.672Z,1.42
2023-08-26T14:54:05.784Z,1.50
2023-08-26T14:56:37.970Z,1.88
2023-08-26T14:59:10.298Z,1.52
2023-08-26T15:01:42.468Z,1.90
2023-08-26T15:04:14.645Z,1.73
2023-08-26T15:06:47.569Z,1.77
2023-08-26T15:09:23.015Z,2.33
2023-08-26T15:11:55.379Z,1.70
2023-08-26T15:14:27.524Z,1.58
2023-08-26T15:17:01.020Z,1.77
2023-08-26T15:19:33.219Z,1.52
2023-08-26T15:22:05.433Z,1.50
2023-08-26T15:24:37.679Z,1.50
2023-08-26T15:27:09.848Z,1.45
2023-08-26T15:29:42.548Z,1.58
2023-08-26T15:32:15.088Z,1.42
2023-08-26T15:34:47.264Z,2.25
2023-08-26T15:37:19.835Z,1.75
2023-08-26T15:39:51.962Z,1.90
2023-08-26T15:42:24.093Z,1.58
2023-08-26T15:44:56.330Z,1.88
2023-08-26T15:47:28.903Z,1.80
2023-08-26T15:50:03.095Z,1.38
2023-08-26T15:52:36.144Z,1.60
2023-08-26T15:55:08.417Z,2.47
2023-08-26T15:57:40.582Z,1.33
2023-08-26T16:00:17.387Z,1.33
2023-08-26T16:02:49.585Z,1.55
2023-08-26T16:05:21.788Z,1.50
2023-08-26T16:07:54.026Z,2.05
2023-08-26T16:10:26.171Z,2.10
2023-08-26T16:12:58.961Z,1.60
2023-08-26T16:15:34.898Z,1.80
2023-08-26T16:18:07.208Z,1.65
2023-08-26T16:20:39.388Z,1.45
2023-08-26T16:23:11.488Z,1.65
2023-08-26T16:25:43.768Z,2.13
2023-08-26T16:28:15.915Z,2.20
2023-08-26T16:30:48.483Z,1.30
2023-08-26T16:33:23.775Z,2.03
2023-08-26T16:35:56.517Z,2.13
2023-08-26T16:38:28.812Z,1.35
2023-08-26T16:41:02.294Z,1.40
2023-08-26T16:43:34.933Z,2.50
2023-08-26T16:46:09.200Z,2.10
2023-08-26T16:48:41.948Z,1.83
2023-08-26T16:51:14.185Z,2.08
2023-08-26T16:53:46.810Z,2.33
2023-08-26T16:56:19.010Z,2.05
2023-08-26T16:58:51.217Z,1.70
2023-08-26T17:01:23.619Z,1.27
2023-08-26T17:03:55.864Z,1.30
2023-08-26T17:06:28.053Z,1.30
2023-08-26T17:09:00.148Z,1.33
2023-08-26T17:11:32.344Z,1.40
2023-08-26T17:14:04.762Z,1.38
2023-08-26T17:16:36.979Z,1.45
2023-08-26T17:19:09.364Z,2.15
2023-08-26T17:21:41.593Z,2.10
2023-08-26T17:24:14.148Z,1.63
2023-08-26T17:26:46.276Z,1.30
2023-08-26T17:29:18.940Z,1.80
2023-08-26T17:31:51.067Z,2.17
2023-08-26T17:34:23.241Z,1.88
2023-08-26T17:36:55.520Z,2.25
2023-08-26T17:39:27.669Z,2.13
2023-08-26T17:42:01.869Z,2.10
2023-08-26T17:44:34.390Z,2.05
2023-08-26T17:47:06.549Z,7.75
2023-08-26T17:49:39.789Z,1.35
2023-08-26T17:52:12.503Z,1.70
2023-08-26T17:54:46.460Z,5.90
2023-08-26T17:57:18.821Z,3.40
2023-08-26T17:59:50.915Z,6.10
2023-08-26T18:02:23.193Z,3.50
2023-08-26T18:04:55.270Z,3.80
2023-08-26T18:07:27.663Z,3.03
2023-08-26T18:10:00.206Z,15.77
2023-08-26T18:12:32.431Z,7.78
2023-08-26T18:15:05.453Z,5.40
2023-08-26T18:17:37.625Z,4.20
2023-08-26T18:20:12.881Z,8.18
2023-08-26T18:22:45.408Z,4.88
2023-08-26T18:25:17.531Z,7.57
2023-08-26T18:27:49.785Z,3.80
2023-08-26T18:30:22.059Z,4.35
2023-08-26T18:32:54.344Z,4.65
2023-08-26T18:35:26.473Z,9.88
2023-08-26T18:37:58.805Z,6.13
2023-08-26T18:40:31.131Z,14.13
2023-08-26T18:43:03.456Z,4.78
2023-08-26T18:45:35.604Z,4.30
2023-08-26T18:48:08.260Z,4.30
2023-08-26T18:50:40.427Z,4.50
2023-08-26T18:53:13.161Z,3.97
2023-08-26T18:55:50.926Z,11.93
2023-08-26T18:58:25.249Z,3.67
2023-08-26T19:00:57.741Z,2.85
2023-08-26T19:03:30.064Z,4.72
2023-08-26T19:06:02.462Z,3.40
2023-08-26T19:08:36.295Z,2.90
2023-08-26T19:11:08.417Z,3.30
2023-08-26T19:13:41.571Z,3.58
2023-08-26T19:16:13.942Z,3.35
2023-08-26T19:18:46.247Z,3.28
2023-08-26T19:21:18.678Z,3.08
2023-08-26T19:23:50.932Z,3.50
2023-08-26T19:26:23.184Z,3.75
2023-08-26T19:28:55.564Z,3.85
2023-08-26T19:31:28.342Z,3.58
2023-08-26T19:34:00.564Z,3.58
2023-08-26T19:36:32.724Z,3.85
2023-08-26T19:39:04.991Z,4.50
2023-08-26T19:41:37.310Z,6.88
2023-08-26T19:44:12.343Z,3.75
2023-08-26T19:46:44.452Z,4.30
2023-08-26T19:49:16.735Z,3.85
2023-08-26T19:51:49.055Z,4.20
2023-08-26T19:54:21.235Z,4.13
2023-08-26T19:56:56.333Z,4.57
2023-08-26T19:59:28.479Z,4.47
2023-08-26T20:02:00.673Z,3.45
2023-08-26T20:04:32.870Z,3.33
2023-08-26T20:07:04.996Z,2.83
2023-08-26T20:09:37.308Z,2.80
2023-08-26T20:12:09.513Z,3.30
2023-08-26T20:14:42.901Z,2.97
2023-08-26T20:17:15.014Z,3.67
2023-08-26T20:19:47.211Z,3.28
2023-08-26T20:22:19.349Z,3.58
2023-08-26T20:24:51.765Z,2.42
2023-08-26T20:27:24.272Z,2.75
2023-08-26T20:29:56.442Z,2.40
2023-08-26T20:32:29.181Z,3.00
2023-08-26T20:35:01.349Z,3.08
2023-08-26T20:37:33.777Z,3.28
2023-08-26T20:40:09.664Z,3.13
2023-08-26T20:42:42.893Z,3.60
2023-08-26T20:45:15.040Z,2.97
2023-08-26T20:47:47.241Z,3.72
2023-08-26T20:50:19.368Z,3.83
2023-08-26T20:52:51.478Z,3.97
2023-08-26T20:55:23.695Z,4.03
2023-08-26T20:57:55.818Z,3.33
2023-08-26T21:00:28.174Z,3.67
2023-08-26T21:03:00.909Z,3.95
2023-08-26T21:05:34.106Z,5.40
2023-08-26T21:08:06.735Z,3.70
2023-08-26T21:10:38.853Z,3.40
2023-08-26T21:13:11.240Z,3.45
2023-08-26T21:15:46.456Z,3.35
2023-08-26T21:18:19.180Z,3.70
2023-08-26T21:20:52.867Z,2.85
2023-08-26T21:23:25.108Z,3.13
2023-08-26T21:25:57.762Z,2.58
2023-08-26T21:28:30.650Z,3.53
2023-08-26T21:31:09.209Z,4.35
2023-08-26T21:33:41.602Z,3.30
2023-08-26T21:36:13.901Z,2.88
2023-08-26T21:38:46.081Z,3.28
2023-08-26T21:41:18.625Z,3.03
2023-08-26T21:43:52.483Z,2.80
2023-08-26T21:46:24.643Z,3.67
2023-08-26T21:48:59.984Z,3.45
2023-08-26T21:51:32.160Z,2.58
2023-08-26T21:54:04.490Z,3.30
2023-08-26T21:56:36.607Z,3.40
2023-08-26T21:59:08.824Z,3.28
2023-08-26T22:01:41.010Z,2.88
2023-08-26T22:04:13.162Z,3.88
2023-08-26T22:06:45.299Z,3.35
2023-08-26T22:09:17.372Z,3.67
2023-08-26T22:11:50.767Z,3.50
2023-08-26T22:14:22.914Z,4.22
2023-08-26T22:16:55.164Z,4.10
2023-08-26T22:19:27.379Z,4.57
2023-08-26T22:21:59.490Z,4.50
2023-08-26T22:24:31.632Z,5.68
2023-08-26T22:27:03.941Z,4.50
2023-08-26T22:29:36.070Z,4.07
2023-08-26T22:32:08.158Z,4.18
2023-08-26T22:34:40.249Z,3.90
2023-08-26T22:37:13.702Z,3.60
2023-08-26T22:39:45.889Z,3.65
2023-08-26T22:42:18.045Z,3.95
2023-08-26T22:44:50.245Z,3.85
2023-08-26T22:47:22.408Z,4.40
2023-08-26T22:49:59.988Z,3.90
2023-08-26T22:52:33.413Z,9.45
2023-08-26T22:55:07.312Z,9.50
2023-08-26T22:57:39.445Z,7.88
2023-08-26T23:00:11.938Z,4.80
2023-08-26T23:02:44.814Z,4.50
2023-08-26T23:05:17.102Z,5.10
2023-08-26T23:07:49.347Z,5.50
2023-08-26T23:10:21.565Z,4.60
2023-08-26T23:12:53.679Z,4.78
2023-08-26T23:15:25.920Z,5.63
2023-08-26T23:17:58.133Z,4.60
2023-08-26T23:20:30.262Z,5.03
2023-08-26T23:23:02.405Z,5.70
2023-08-26T23:25:34.619Z,5.53
2023-08-26T23:28:06.983Z,4.93
2023-08-26T23:30:43.282Z,4.80
2023-08-26T23:33:18.180Z,4.00
2023-08-26T23:35:50.380Z,4.38
2023-08-26T23:38:22.514Z,4.00
2023-08-26T23:40:54.610Z,3.85
2023-08-26T23:43:26.763Z,3.35
2023-08-26T23:45:58.834Z,3.40
2023-08-26T23:48:31.056Z,4.40
2023-08-26T23:51:03.333Z,3.50
2023-08-26T23:53:35.427Z,4.25
2023-08-26T23:56:07.560Z,3.47
2023-08-26T23:58:39.796Z,4.45
